Time;durP1;ratioP1;P1;durP2;ratioP2;P2;SDS_P1;SDS_P2;PMS_P1;PMS_P2;Temp;Humidity;BMP_temperature;BMP_pressure;BME280_temperature;BME280_humidity;BME280_pressure;Samples;Min_cycle;Max_cycle;Signal;HPM_P1;HPM_P2
2021/01/16 00:01:41;;;;;;;4.78;0.93;;;24.80;44.30;;;;;;4121072;28;20050;-62
2021/01/16 00:03:43;;;;;;;2.83;0.73;;;24.80;44.30;;;;;;4122933;28;20099;-61
2021/01/16 00:05:47;;;;;;;3.38;1.35;;;24.80;44.30;;;;;;4125756;28;20458;-62
2021/01/16 00:08:00;;;;;;;2.58;1.08;;;24.90;44.40;;;;;;4128007;28;20034;-60
2021/01/16 00:10:03;;;;;;;4.65;0.93;;;24.80;44.30;;;;;;4127767;28;20026;-57
2021/01/16 00:12:06;;;;;;;3.47;1.05;;;24.80;44.30;;;;;;4134931;28;20039;-58
2021/01/16 00:14:08;;;;;;;3.17;1.05;;;24.90;44.50;;;;;;4134123;28;20124;-59
2021/01/16 00:16:10;;;;;;;5.15;1.63;;;24.90;44.40;;;;;;4131788;28;20030;-59
2021/01/16 00:18:14;;;;;;;1.67;0.90;;;24.90;44.30;;;;;;4116927;28;20041;-59
2021/01/16 00:20:18;;;;;;;1.85;0.85;;;24.90;44.40;;;;;;4113631;28;20037;-58
2021/01/16 00:22:20;;;;;;;5.28;1.48;;;24.90;44.30;;;;;;4116237;28;20121;-59
2021/01/16 00:24:22;;;;;;;7.80;1.67;;;24.90;44.10;;;;;;4121446;28;20019;-58
2021/01/16 00:26:24;;;;;;;5.03;1.70;;;24.90;42.90;;;;;;4114645;28;20392;-53
2021/01/16 00:28:29;;;;;;;4.38;1.85;;;24.90;42.00;;;;;;4118642;28;20089;-57
2021/01/16 00:30:34;;;;;;;9.30;1.80;;;24.80;41.80;;;;;;4114340;28;20054;-63
2021/01/16 00:32:40;;;;;;;5.90;1.88;;;24.90;41.90;;;;;;4128579;28;20388;-61
2021/01/16 00:34:42;;;;;;;12.32;2.42;;;24.90;42.40;;;;;;4123347;28;20085;-61
2021/01/16 00:36:44;;;;;;;18.33;2.42;;;24.80;42.40;;;;;;4114393;28;20294;-60
2021/01/16 00:38:49;;;;;;;8.85;1.67;;;24.80;42.40;;;;;;4113315;28;20109;-62
2021/01/16 00:40:52;;;;;;;10.90;2.30;;;24.80;42.70;;;;;;4109673;28;20043;-60
2021/01/16 00:42:56;;;;;;;10.18;2.08;;;24.80;42.70;;;;;;4114959;28;20047;-60
2021/01/16 00:44:57;;;;;;;;;;;24.80;42.90;;;;;;4129458;28;20050;-60
2021/01/16 00:46:59;;;;;;;16.33;2.67;;;24.90;43.20;;;;;;4112959;28;19957;-59
2021/01/16 00:49:01;;;;;;;4.13;1.67;;;24.90;43.40;;;;;;4117049;28;20042;-62
2021/01/16 00:51:04;;;;;;;10.25;1.83;;;24.90;43.60;;;;;;4123625;28;20031;-62
2021/01/16 00:53:06;;;;;;;14.32;2.28;;;25.00;43.60;;;;;;4113831;28;20053;-67
2021/01/16 00:55:09;;;;;;;11.20;2.53;;;24.90;43.30;;;;;;4120041;28;20030;-64
2021/01/16 00:57:12;;;;;;;10.18;2.10;;;25.00;43.40;;;;;;4118062;28;20263;-63
2021/01/16 00:59:14;;;;;;;14.43;2.70;;;25.00;43.30;;;;;;4131868;28;20037;-64
2021/01/16 01:01:16;;;;;;;17.13;2.70;;;25.00;43.20;;;;;;4132934;28;20060;-65
2021/01/16 01:03:20;;;;;;;17.13;2.80;;;25.00;43.30;;;;;;4135126;28;20053;-60
2021/01/16 01:05:23;;;;;;;14.70;2.78;;;25.00;43.80;;;;;;4133758;28;20476;-63
2021/01/16 01:07:25;;;;;;;8.95;3.00;;;25.00;43.00;;;;;;4132391;28;20074;-62
2021/01/16 01:09:28;;;;;;;17.55;3.15;;;25.00;43.00;;;;;;4118411;28;20040;-62
2021/01/16 01:11:31;;;;;;;10.85;3.10;;;25.10;43.30;;;;;;4109447;28;20445;-58
2021/01/16 01:13:33;;;;;;;14.87;3.07;;;25.00;43.20;;;;;;4100877;28;20053;-58
2021/01/16 01:15:36;;;;;;;14.57;2.95;;;25.10;43.50;;;;;;4108558;28;20296;-60
2021/01/16 01:17:38;;;;;;;15.90;2.63;;;;;;;;;;4116064;28;20137;-61
2021/01/16 01:19:40;;;;;;;10.23;2.45;;;;;;;;;;4111238;28;20077;-59
2021/01/16 01:21:42;;;;;;;10.15;2.53;;;;;;;;;;4118496;28;20081;-58
2021/01/16 01:23:44;;;;;;;7.70;1.80;;;;;;;;;;4126599;28;20048;-59
2021/01/16 01:25:46;;;;;;;10.50;2.13;;;25.10;43.70;;;;;;4130977;28;20037;-61
2021/01/16 01:27:54;;;;;;;7.72;2.17;;;25.30;44.30;;;;;;4137479;28;20041;-59
2021/01/16 01:29:56;;;;;;;7.97;1.80;;;25.30;44.20;;;;;;4142419;28;20113;-59
2021/01/16 01:31:58;;;;;;;5.40;1.90;;;25.30;44.20;;;;;;4124560;28;20038;-59
2021/01/16 01:34:01;;;;;;;8.43;1.80;;;25.30;44.10;;;;;;4122262;28;20061;-64
2021/01/16 01:36:03;;;;;;;8.27;2.10;;;25.40;44.20;;;;;;4118143;28;20027;-60
2021/01/16 01:38:05;;;;;;;8.50;2.15;;;25.40;43.70;;;;;;4126859;28;20333;-63
2021/01/16 01:40:09;;;;;;;8.02;2.22;;;25.40;43.60;;;;;;4136147;28;20105;-58
2021/01/16 01:42:18;;;;;;;15.32;2.30;;;25.50;43.90;;;;;;4139672;28;20155;-59
2021/01/16 01:44:20;;;;;;;4.32;1.75;;;25.50;43.70;;;;;;4136213;28;20038;-60
2021/01/16 01:46:22;;;;;;;5.68;2.08;;;25.50;43.80;;;;;;4132082;28;20167;-59
2021/01/16 01:48:25;;;;;;;2.75;1.35;;;25.50;43.10;;;;;;4132810;28;20095;-61
2021/01/16 01:50:30;;;;;;;4.95;1.92;;;25.40;42.30;;;;;;4123058;28;20034;-59
2021/01/16 01:52:34;;;;;;;4.70;1.42;;;25.50;42.50;;;;;;4118034;28;20383;-62
2021/01/16 01:54:37;;;;;;;3.10;1.30;;;25.50;42.60;;;;;;4120312;28;20456;-60
2021/01/16 01:56:39;;;;;;;;;;;25.50;42.40;;;;;;4126649;28;20046;-63
2021/01/16 01:58:42;;;;;;;8.45;1.80;;;25.50;42.70;;;;;;4124777;28;19968;-60
2021/01/16 02:00:49;;;;;;;27.38;2.22;;;25.50;42.90;;;;;;4120273;28;20030;-60
2021/01/16 02:02:53;;;;;;;6.25;1.40;;;25.50;42.80;;;;;;4120532;28;20070;-60
2021/01/16 02:04:58;;;;;;;4.07;1.17;;;25.50;42.60;;;;;;4127412;28;20145;-64
2021/01/16 02:07:01;;;;;;;4.68;1.23;;;25.60;42.70;;;;;;4131046;28;20052;-63
2021/01/16 02:09:04;;;;;;;6.50;1.85;;;25.50;42.20;;;;;;4120764;28;20033;-56
2021/01/16 02:11:07;;;;;;;6.03;1.80;;;25.50;42.10;;;;;;4120176;28;20149;-58
2021/01/16 02:13:09;;;;;;;6.43;1.33;;;25.50;42.20;;;;;;4115887;28;20022;-56
2021/01/16 02:15:29;;;;;;;5.20;1.35;;;25.60;42.60;;;;;;4129040;28;20103;-57
2021/01/16 02:17:36;;;;;;;4.53;1.17;;;25.50;41.90;;;;;;4124710;28;20096;-58
2021/01/16 02:20:01;;;;;;;6.05;1.90;;;25.50;41.70;;;;;;4127018;28;20096;-54
2021/01/16 02:22:05;;;;;;;6.55;1.40;;;25.50;41.90;;;;;;4127506;28;20502;-60
2021/01/16 02:24:31;;;;;;;4.10;1.30;;;25.50;42.40;;;;;;4134548;28;20045;-62
2021/01/16 02:26:47;;;;;;;5.63;1.35;;;25.50;41.90;;;;;;4126512;28;20038;-63
2021/01/16 02:28:59;;;;;;;4.97;1.55;;;25.50;42.20;;;;;;4127557;28;20033;-63
2021/01/16 02:31:04;;;;;;;1.88;1.10;;;25.50;42.40;;;;;;4130751;28;20029;-62
2021/01/16 02:33:09;;;;;;;7.03;1.10;;;25.50;42.40;;;;;;4130676;28;20117;-62
2021/01/16 02:35:13;;;;;;;5.32;1.33;;;25.50;42.50;;;;;;4127592;28;20030;-62
2021/01/16 02:37:49;;;;;;;2.67;1.15;;;25.50;42.30;;;;;;4128395;28;21084;-62
2021/01/16 02:40:19;;;;;;;3.70;1.20;;;25.50;42.30;;;;;;4131698;28;20161;-62
2021/01/16 02:42:51;;;;;;;3.35;0.90;;;25.50;42.60;;;;;;4115820;28;20061;-63
2021/01/16 02:45:02;;;;;;;1.85;0.80;;;25.50;42.40;;;;;;4128895;28;20046;-63
2021/01/16 02:47:21;;;;;;;3.33;0.85;;;25.50;42.40;;;;;;4133632;28;20080;-62
2021/01/16 02:49:45;;;;;;;4.70;1.33;;;25.50;42.40;;;;;;4134926;28;20092;-62
2021/01/16 02:52:10;;;;;;;2.83;0.98;;;25.50;42.40;;;;;;4135657;28;20124;-63
2021/01/16 02:54:13;;;;;;;2.28;0.80;;;25.60;42.60;;;;;;4112968;28;20040;-62
2021/01/16 02:56:16;;;;;;;;;;;25.50;42.50;;;;;;4131013;28;20041;-62
2021/01/16 02:58:19;;;;;;;2.72;1.08;;;25.60;42.70;;;;;;4126733;28;19917;-62
2021/01/16 03:00:22;;;;;;;2.70;1.05;;;25.60;42.70;;;;;;4119943;28;20041;-63
2021/01/16 03:02:23;;;;;;;;;;;25.60;42.50;;;;;;4116674;28;20053;-62
2021/01/16 03:04:26;;;;;;;3.95;0.95;;;25.60;42.60;;;;;;4122176;28;19918;-62
2021/01/16 03:06:29;;;;;;;2.70;0.95;;;25.60;42.30;;;;;;4115780;28;20058;-62
2021/01/16 03:08:31;;;;;;;2.22;1.00;;;25.60;42.10;;;;;;4112377;28;20277;-63
2021/01/16 03:10:34;;;;;;;2.75;0.95;;;25.60;41.80;;;;;;4108509;28;20035;-61
2021/01/16 03:12:37;;;;;;;2.03;1.00;;;25.60;41.60;;;;;;4112456;28;20125;-61
2021/01/16 03:14:54;;;;;;;2.38;0.88;;;25.60;41.20;;;;;;4109094;28;20097;-62
2021/01/16 03:17:12;;;;;;;2.17;0.77;;;25.60;41.30;;;;;;4111810;28;20034;-61
2021/01/16 03:19:24;;;;;;;2.45;0.80;;;25.60;41.30;;;;;;4109629;28;20055;-61
2021/01/16 03:21:26;;;;;;;2.35;0.90;;;;;;;;;;4113972;28;20104;-62
2021/01/16 03:23:28;;;;;;;2.60;0.98;;;;;;;;;;4121196;28;20108;-62
2021/01/16 03:25:31;;;;;;;1.85;0.90;;;;;;;;;;4123262;28;20114;-62
2021/01/16 03:27:33;;;;;;;2.67;0.80;;;25.60;41.40;;;;;;4109365;28;20026;-63
2021/01/16 03:29:36;;;;;;;2.63;0.95;;;25.70;41.50;;;;;;4111503;28;20031;-62
2021/01/16 03:31:38;;;;;;;2.15;0.93;;;25.70;40.50;;;;;;4114936;28;20462;-62
2021/01/16 03:33:40;;;;;;;2.40;1.20;;;25.70;40.40;;;;;;4122747;28;20019;-62
2021/01/16 03:35:42;;;;;;;2.05;0.75;;;25.70;40.50;;;;;;4118125;28;20053;-63
2021/01/16 03:37:48;;;;;;;2.25;0.60;;;25.70;40.40;;;;;;4133340;28;20038;-62
2021/01/16 03:39:50;;;;;;;3.83;0.90;;;25.70;40.20;;;;;;4130660;28;20546;-62
2021/01/16 03:41:52;;;;;;;1.03;0.60;;;25.70;40.50;;;;;;4137621;28;20480;-62
2021/01/16 03:43:54;;;;;;;3.38;1.00;;;25.80;40.40;;;;;;4132599;28;20400;-62
2021/01/16 03:45:56;;;;;;;2.83;0.90;;;25.80;40.70;;;;;;4138579;28;20033;-58
2021/01/16 03:47:58;;;;;;;1.30;0.70;;;25.80;40.40;;;;;;4120216;28;20436;-62
2021/01/16 03:50:01;;;;;;;1.48;0.73;;;25.80;40.30;;;;;;4112828;28;20288;-61
2021/01/16 03:52:04;;;;;;;2.35;0.80;;;25.80;40.40;;;;;;4124650;28;20060;-61
2021/01/16 03:54:08;;;;;;;3.03;1.25;;;25.80;40.20;;;;;;4104895;28;20110;-60
2021/01/16 03:56:10;;;;;;;1.95;0.95;;;25.80;40.30;;;;;;4106577;28;20105;-60
2021/01/16 03:58:12;;;;;;;2.10;0.93;;;25.80;40.30;;;;;;4112465;28;20025;-61
2021/01/16 04:00:14;;;;;;;2.30;0.90;;;25.80;40.10;;;;;;4113127;28;20037;-63
2021/01/16 04:02:17;;;;;;;2.07;1.00;;;25.90;40.20;;;;;;4112251;28;20143;-62
2021/01/16 04:04:19;;;;;;;1.85;0.70;;;25.90;40.40;;;;;;4110482;28;20267;-62
2021/01/16 04:06:21;;;;;;;2.80;0.80;;;25.90;40.10;;;;;;4105963;28;20041;-62
2021/01/16 04:08:23;;;;;;;1.50;0.73;;;25.90;40.10;;;;;;4119092;28;20058;-63
2021/01/16 04:10:25;;;;;;;1.35;0.73;;;25.90;40.10;;;;;;4115088;28;20577;-63
2021/01/16 04:12:31;;;;;;;2.65;0.90;;;25.90;40.10;;;;;;4121153;28;20476;-62
2021/01/16 04:14:33;;;;;;;2.95;1.05;;;26.00;40.10;;;;;;4114705;28;20325;-63
2021/01/16 04:16:35;;;;;;;1.65;0.93;;;26.00;40.00;;;;;;4120076;28;20316;-62
2021/01/16 04:18:37;;;;;;;1.08;0.60;;;26.00;39.90;;;;;;4114045;28;20042;-63
2021/01/16 04:20:39;;;;;;;2.13;0.70;;;26.10;39.90;;;;;;4115057;28;20034;-62
2021/01/16 04:22:41;;;;;;;1.38;0.88;;;26.10;40.00;;;;;;4116540;28;20507;-62
2021/01/16 04:24:43;;;;;;;1.00;0.60;;;26.10;40.00;;;;;;4123558;28;20037;-62
2021/01/16 04:26:49;;;;;;;2.60;0.68;;;26.20;39.70;;;;;;4108170;28;20038;-62
2021/01/16 04:28:51;;;;;;;2.65;0.75;;;26.20;39.90;;;;;;4115902;28;20230;-63
2021/01/16 04:30:54;;;;;;;2.83;0.90;;;26.30;39.90;;;;;;4116117;28;20041;-63
2021/01/16 04:32:56;;;;;;;1.45;0.82;;;26.30;39.80;;;;;;4128290;28;20470;-63
2021/01/16 04:34:58;;;;;;;3.58;0.82;;;26.40;39.90;;;;;;4119749;28;20459;-63
2021/01/16 04:37:00;;;;;;;1.92;0.65;;;26.40;39.90;;;;;;4114201;28;20342;-62
2021/01/16 04:39:04;;;;;;;1.65;0.63;;;26.40;39.90;;;;;;4116719;28;20133;-62
2021/01/16 04:41:06;;;;;;;4.15;0.60;;;26.50;40.00;;;;;;4121411;28;20042;-61
2021/01/16 04:43:12;;;;;;;2.63;0.70;;;26.50;40.00;;;;;;4138415;28;20486;-61
2021/01/16 04:45:16;;;;;;;0.90;0.60;;;26.60;40.10;;;;;;4136661;28;20088;-61
2021/01/16 04:47:30;;;;;;;4.35;1.00;;;26.60;40.00;;;;;;4134349;28;20065;-61
2021/01/16 04:49:32;;;;;;;2.03;0.90;;;26.70;40.20;;;;;;4125477;28;20550;-61
2021/01/16 04:51:43;;;;;;;2.13;0.70;;;26.70;40.20;;;;;;4119997;28;20038;-62
2021/01/16 04:53:49;;;;;;;1.65;0.50;;;26.80;40.30;;;;;;4115165;28;20940;-61
2021/01/16 04:55:52;;;;;;;1.00;0.73;;;26.80;40.30;;;;;;4130921;28;20120;-60
2021/01/16 04:58:02;;;;;;;2.40;0.70;;;26.90;40.30;;;;;;4135980;28;20041;-62
2021/01/16 05:00:12;;;;;;;1.33;0.68;;;26.90;40.20;;;;;;4135014;28;20100;-60
2021/01/16 05:02:15;;;;;;;0.98;0.70;;;27.00;40.20;;;;;;4131843;28;20081;-61
2021/01/16 05:04:22;;;;;;;1.02;0.73;;;27.00;40.20;;;;;;4132613;28;20038;-61
2021/01/16 05:06:29;;;;;;;0.75;0.60;;;27.10;40.20;;;;;;4120097;28;20034;-60
2021/01/16 05:08:32;;;;;;;1.88;0.90;;;27.20;40.20;;;;;;4127341;28;20480;-61
2021/01/16 05:10:42;;;;;;;1.90;0.80;;;27.20;40.20;;;;;;4130898;28;20499;-62
2021/01/16 05:13:05;;;;;;;1.73;0.88;;;27.30;40.20;;;;;;4130386;28;20034;-61
2021/01/16 05:15:23;;;;;;;1.23;0.85;;;27.30;40.10;;;;;;4117444;28;20042;-61
2021/01/16 05:17:27;;;;;;;1.85;0.70;;;27.40;40.20;;;;;;4116022;28;20445;-63
2021/01/16 05:19:34;;;;;;;1.65;0.70;;;27.40;40.30;;;;;;4135629;28;20038;-62
2021/01/16 05:21:36;;;;;;;3.50;1.02;;;27.50;40.30;;;;;;4132491;28;20129;-61
2021/01/16 05:23:43;;;;;;;2.53;0.85;;;;;;;;;;4121168;28;20116;-62
2021/01/16 05:25:54;;;;;;;2.53;0.90;;;;;;;;;;4117191;28;20439;-63
2021/01/16 05:28:00;;;;;;;1.98;0.75;;;;;;;;;;4124158;28;20034;-59
2021/01/16 05:30:03;;;;;;;1.50;0.80;;;;;;;;;;4111506;28;20027;-62
2021/01/16 05:32:06;;;;;;;1.48;0.70;;;;;;;;;;4112053;28;20397;-60
2021/01/16 05:34:08;;;;;;;3.10;0.85;;;;;;;;;;4121149;28;20035;-59
2021/01/16 05:36:11;;;;;;;1.13;0.60;;;;;;;;;;4126412;28;20497;-59
2021/01/16 05:38:15;;;;;;;1.98;0.98;;;;;;;;;;4123376;28;20030;-61
2021/01/16 05:40:18;;;;;;;1.58;0.75;;;;;;;;;;4119671;28;20172;-62
2021/01/16 05:42:21;;;;;;;3.72;1.00;;;;;;;;;;4120966;28;20129;-61
2021/01/16 05:44:25;;;;;;;2.13;0.80;;;27.60;40.30;;;;;;4124824;28;20042;-61
2021/01/16 05:46:30;;;;;;;1.83;0.95;;;28.20;39.90;;;;;;4124718;28;20337;-60
2021/01/16 05:48:33;;;;;;;1.52;1.00;;;28.20;39.80;;;;;;4120432;28;20141;-62
2021/01/16 05:50:40;;;;;;;1.58;0.80;;;28.30;39.90;;;;;;4126318;28;20112;-61
2021/01/16 05:52:43;;;;;;;2.58;0.90;;;28.30;39.70;;;;;;4122409;28;20050;-61
2021/01/16 05:54:46;;;;;;;1.75;0.75;;;28.30;39.70;;;;;;4126579;28;20082;-61
2021/01/16 05:56:49;;;;;;;;;;;28.40;39.70;;;;;;4128625;28;20117;-61
2021/01/16 05:58:55;;;;;;;2.47;1.10;;;;;;;;;;4127035;28;20007;-59
2021/01/16 06:00:57;;;;;;;5.82;0.93;;;;;;;;;;4114648;28;20038;-59
2021/01/16 06:02:59;;;;;;;3.47;1.38;;;;;;;;;;4111892;28;20066;-60
2021/01/16 06:05:01;;;;;;;5.95;1.52;;;;;;;;;;4116382;28;20173;-59
2021/01/16 06:07:07;;;;;;;8.25;1.10;;;;;;;;;;4119460;28;20026;-61
2021/01/16 06:09:14;;;;;;;5.40;1.38;;;;;;;;;;4110320;28;20515;-61
2021/01/16 06:11:16;;;;;;;6.22;1.40;;;;;;;;;;4122548;28;20049;-61
2021/01/16 06:13:19;;;;;;;8.15;1.33;;;;;;;;;;4129076;28;20631;-60
2021/01/16 06:15:21;;;;;;;;;;;;;;;;;;4121672;28;20065;-60
2021/01/16 06:17:25;;;;;;;4.60;1.20;;;;;;;;;;4116676;28;19948;-62
2021/01/16 06:19:28;;;;;;;7.35;1.30;;;;;;;;;;4114988;28;20051;-59
2021/01/16 06:21:30;;;;;;;6.47;1.38;;;;;;;;;;4117037;28;20129;-61
2021/01/16 06:23:33;;;;;;;1.77;0.98;;;;;;;;;;4109273;28;20047;-63
2021/01/16 06:25:37;;;;;;;3.47;1.20;;;;;;;;;;4105839;28;20346;-65
2021/01/16 06:27:39;;;;;;;3.97;1.08;;;;;;;;;;4125945;28;20044;-66
2021/01/16 06:29:54;;;;;;;7.13;1.17;;;;;;;;;;4133031;28;20065;-64
2021/01/16 06:32:10;;;;;;;3.10;1.08;;;;;;;;;;4130421;28;20042;-64
2021/01/16 06:34:12;;;;;;;3.67;1.10;;;;;;;;;;4129567;28;20030;-63
2021/01/16 06:36:15;;;;;;;4.03;1.25;;;;;;;;;;4115965;28;20034;-63
2021/01/16 06:38:24;;;;;;;5.28;1.40;;;;;;;;;;4126571;28;20030;-61
2021/01/16 06:40:33;;;;;;;5.35;1.20;;;;;;;;;;4131224;28;20564;-64
2021/01/16 06:42:37;;;;;;;4.00;1.20;;;;;;;;;;4143008;28;20399;-62
2021/01/16 06:44:40;;;;;;;5.30;0.90;;;;;;;;;;4130516;28;20042;-59
2021/01/16 06:46:49;;;;;;;2.47;0.60;;;;;;;;;;4131521;28;20030;-61
2021/01/16 06:48:52;;;;;;;3.55;0.88;;;;;;;;;;4134726;28;20030;-59
2021/01/16 06:50:54;;;;;;;3.20;1.33;;;;;;;;;;4116796;28;20131;-58
2021/01/16 06:52:57;;;;;;;3.78;1.40;;;;;;;;;;4113091;28;20046;-62
2021/01/16 06:55:03;;;;;;;2.13;0.77;;;;;;;;;;4115628;28;20124;-63
2021/01/16 06:57:15;;;;;;;2.38;0.88;;;;;;;;;;4129329;28;20033;-63
2021/01/16 06:59:22;;;;;;;2.22;1.10;;;;;;;;;;4130619;28;20038;-61
2021/01/16 07:01:33;;;;;;;3.10;0.70;;;;;;;;;;4128938;28;20030;-59
2021/01/16 07:03:39;;;;;;;3.20;1.10;;;;;;;;;;4139670;28;20052;-58
2021/01/16 07:05:41;;;;;;;2.30;0.80;;;;;;;;;;4132728;28;20092;-60
2021/01/16 07:07:45;;;;;;;1.33;0.75;;;;;;;;;;4128399;28;20865;-59
2021/01/16 07:09:47;;;;;;;2.30;0.80;;;;;;;;;;4122277;28;20022;-59
2021/01/16 07:11:53;;;;;;;0.85;0.57;;;;;;;;;;4135723;28;20117;-59
2021/01/16 07:13:55;;;;;;;2.38;1.20;;;;;;;;;;4138692;28;20087;-59
2021/01/16 07:15:58;;;;;;;1.75;0.70;;;;;;;;;;4132459;28;20037;-56
2021/01/16 07:18:01;;;;;;;2.40;0.75;;;;;;;;;;4135979;28;20620;-60
2021/01/16 07:20:04;;;;;;;1.63;0.68;;;;;;;;;;4131803;28;20038;-59
2021/01/16 07:22:06;;;;;;;2.25;0.90;;;;;;;;;;4143987;28;20070;-59
2021/01/16 07:24:13;;;;;;;1.40;0.70;;;;;;;;;;4129195;28;20026;-59
2021/01/16 07:26:16;;;;;;;1.73;0.63;;;;;;;;;;4142894;28;20065;-59
2021/01/16 07:28:17;;;;;;;;;;;;;;;;;;4132639;28;20046;-59
2021/01/16 07:30:19;;;;;;;1.85;0.90;;;;;;;;;;4144163;28;20394;-59
2021/01/16 07:32:30;;;;;;;1.20;0.60;;;;;;;;;;4133748;28;20052;-58
2021/01/16 07:34:33;;;;;;;1.60;0.70;;;;;;;;;;4139201;28;20629;-59
2021/01/16 07:36:36;;;;;;;2.30;0.77;;;;;;;;;;4131193;28;20065;-59
2021/01/16 07:38:37;;;;;;;;;;;;;;;;;;4134032;28;20168;-59
2021/01/16 07:40:43;;;;;;;1.10;0.57;;;;;;;;;;4125596;28;19921;-59
2021/01/16 07:42:55;;;;;;;1.50;0.70;;;;;;;;;;4111696;28;20043;-59
2021/01/16 07:45:08;;;;;;;1.60;0.82;;;;;;;;;;4116183;28;20085;-58
2021/01/16 07:47:21;;;;;;;1.55;0.90;;;;;;;;;;4124085;28;20103;-60
2021/01/16 07:49:29;;;;;;;0.82;0.50;;;;;;;;;;4130693;28;20527;-60
2021/01/16 07:51:36;;;;;;;2.08;0.80;;;;;;;;;;4130739;28;20046;-61
2021/01/16 07:53:41;;;;;;;2.40;0.52;;;;;;;;;;4116758;28;20077;-59
2021/01/16 07:55:45;;;;;;;1.52;0.77;;;;;;;;;;4124368;28;20061;-59
2021/01/16 07:57:51;;;;;;;0.82;0.50;;;;;;;;;;4131666;28;20057;-60
2021/01/16 07:59:57;;;;;;;1.67;0.60;;;;;;;;;;4115475;28;20034;-59
2021/01/16 08:01:59;;;;;;;0.90;0.60;;;;;;;;;;4117173;28;20054;-60
2021/01/16 08:04:19;;;;;;;0.98;0.60;;;;;;;;;;4113872;28;20121;-60
2021/01/16 08:06:34;;;;;;;0.98;0.57;;;;;;;;;;4120290;28;20030;-59
2021/01/16 08:08:46;;;;;;;0.63;0.55;;;;;;;;;;4119383;28;20121;-59
2021/01/16 08:10:48;;;;;;;1.35;0.60;;;;;;;;;;4113304;28;20554;-60
2021/01/16 08:12:51;;;;;;;0.97;0.67;;;;;;;;;;4118082;28;20513;-59
2021/01/16 08:14:53;;;;;;;;;;;;;;;;;;4113293;28;20030;-60
2021/01/16 08:16:57;;;;;;;0.73;0.50;;;;;;;;;;4112974;28;19926;-59
2021/01/16 08:19:07;;;;;;;2.17;0.60;;;;;;;;;;4115497;28;20034;-60
2021/01/16 08:21:11;;;;;;;1.58;0.55;;;;;;;;;;4116860;28;20129;-54
2021/01/16 08:23:21;;;;;;;0.75;0.55;;;;;;;;;;4127221;28;20050;-58
2021/01/16 08:25:27;;;;;;;0.77;0.60;;;;;;;;;;4131956;28;20038;-58
2021/01/16 08:27:33;;;;;;;0.88;0.50;;;;;;;;;;4132222;28;20025;-60
2021/01/16 08:29:35;;;;;;;1.65;0.70;;;;;;;;;;4126536;28;20041;-58
2021/01/16 08:31:37;;;;;;;1.55;1.00;;;;;;;;;;4130492;28;20128;-59
2021/01/16 08:33:39;;;;;;;2.45;0.70;;;;;;;;;;4133062;28;20317;-56
2021/01/16 08:35:41;;;;;;;2.92;0.65;;;28.50;39.90;;;;;;4117136;28;20122;-59
2021/01/16 08:37:43;;;;;;;2.05;0.70;;;27.80;39.80;;;;;;4115916;28;20133;-58
2021/01/16 08:39:45;;;;;;;1.67;0.70;;;27.60;40.10;;;;;;4111705;28;20599;-58
2021/01/16 08:42:03;;;;;;;1.88;0.82;;;27.50;40.90;;;;;;4128618;28;20073;-58
2021/01/16 08:44:06;;;;;;;2.72;0.80;;;27.50;41.50;;;;;;4118057;28;20133;-59
2021/01/16 08:46:34;;;;;;;6.30;1.00;;;27.50;41.90;;;;;;4115791;28;20037;-58
2021/01/16 08:48:38;;;;;;;2.47;0.90;;;27.50;42.70;;;;;;4115256;28;20837;-59
2021/01/16 08:50:40;;;;;;;2.35;0.70;;;27.40;41.40;;;;;;4114757;28;20092;-60
2021/01/16 08:52:42;;;;;;;1.10;0.70;;;;;;;;;;4116598;28;20133;-61
2021/01/16 08:55:04;;;;;;;5.63;0.82;;;27.30;40.20;;;;;;4115840;28;20440;-60
2021/01/16 08:57:06;;;;;;;1.23;0.50;;;;;;;;;;4108151;28;20117;-59
2021/01/16 08:59:18;;;;;;;2.30;0.75;;;;;;;;;;4114749;28;20040;-59
2021/01/16 09:01:20;;;;;;;0.73;0.52;;;;;;;;;;4118920;28;20496;-57
2021/01/16 09:03:25;;;;;;;1.98;0.80;;;;;;;;;;4131070;28;20061;-57
2021/01/16 09:05:27;;;;;;;2.00;1.05;;;;;;;;;;4119231;28;20381;-59
2021/01/16 09:07:29;;;;;;;3.63;0.95;;;;;;;;;;4117220;28;20069;-59
2021/01/16 09:09:31;;;;;;;3.70;0.90;;;;;;;;;;4115402;28;20057;-61
2021/01/16 09:11:34;;;;;;;1.55;0.70;;;26.90;40.10;;;;;;4118541;28;20033;-59
2021/01/16 09:13:41;;;;;;;2.20;0.97;;;26.70;41.50;;;;;;4128964;28;20399;-55
2021/01/16 09:15:43;;;;;;;3.55;0.73;;;;;;;;;;4129342;28;20440;-64
2021/01/16 09:18:18;;;;;;;7.25;1.48;;;;;;;;;;4125921;28;20061;-66
2021/01/16 09:20:24;;;;;;;5.95;1.13;;;;;;;;;;4114170;28;20042;-52
2021/01/16 09:22:28;;;;;;;8.82;1.02;;;;;;;;;;4123355;28;20260;-61
2021/01/16 09:24:29;;;;;;;;;;;;;;;;;;4125191;28;20477;-62
2021/01/16 09:26:31;;;;;;;5.03;1.10;;;;;;;;;;4124618;28;20066;-63
2021/01/16 09:28:39;;;;;;;2.28;0.88;;;;;;;;;;4123824;28;20499;-61
2021/01/16 09:30:42;;;;;;;3.90;1.13;;;;;;;;;;4128755;28;20474;-62
2021/01/16 09:32:44;;;;;;;1.33;0.98;;;;;;;;;;4125964;28;20108;-62
2021/01/16 09:34:46;;;;;;;2.03;1.13;;;;;;;;;;4122213;28;20129;-56
2021/01/16 09:37:00;;;;;;;4.28;0.93;;;26.50;41.00;;;;;;4127671;28;20041;-57
2021/01/16 09:39:04;;;;;;;3.03;1.23;;;26.10;42.00;;;;;;4122510;28;20507;-57
2021/01/16 09:41:06;;;;;;;5.00;1.38;;;26.00;42.00;;;;;;4123587;28;20124;-55
2021/01/16 09:43:19;;;;;;;2.90;1.20;;;25.90;42.50;;;;;;4124266;28;20104;-57
2021/01/16 09:45:22;;;;;;;2.13;1.20;;;25.90;43.10;;;;;;4128071;28;20033;-58
2021/01/16 09:47:26;;;;;;;1.13;0.70;;;25.90;43.50;;;;;;4117325;28;20406;-55
2021/01/16 09:49:44;;;;;;;2.17;0.80;;;25.90;43.70;;;;;;4114083;28;20037;-57
2021/01/16 09:51:46;;;;;;;2.42;0.82;;;26.00;44.00;;;;;;4119072;28;20022;-55
2021/01/16 09:53:49;;;;;;;3.05;0.90;;;26.00;44.20;;;;;;4135183;28;20062;-55
2021/01/16 09:55:53;;;;;;;2.97;1.30;;;26.00;44.30;;;;;;4133591;28;20065;-56
2021/01/16 09:57:55;;;;;;;1.65;0.73;;;26.10;44.50;;;;;;4137263;28;20026;-56
2021/01/16 10:00:15;;;;;;;3.53;1.25;;;26.20;45.50;;;;;;4123187;28;20080;-48
2021/01/16 10:02:18;;;;;;;1.60;0.80;;;26.10;43.40;;;;;;4128479;28;20046;-60
2021/01/16 10:04:23;;;;;;;10.63;1.40;;;25.90;42.10;;;;;;4138732;28;20038;-58
2021/01/16 10:06:35;;;;;;;4.47;0.90;;;25.80;42.10;;;;;;4140196;28;20044;-57
2021/01/16 10:08:40;;;;;;;5.18;1.10;;;25.70;42.70;;;;;;4133655;28;20222;-57
2021/01/16 10:10:47;;;;;;;6.40;1.00;;;25.70;43.30;;;;;;4124780;28;20148;-57
2021/01/16 10:13:00;;;;;;;5.60;1.17;;;25.80;43.50;;;;;;4135069;28;20499;-59
2021/01/16 10:15:08;;;;;;;7.13;1.48;;;25.80;43.70;;;;;;4134866;28;20052;-58
2021/01/16 10:17:12;;;;;;;3.78;1.10;;;25.90;44.00;;;;;;4128799;28;20042;-57
2021/01/16 10:19:16;;;;;;;6.93;1.70;;;25.90;44.20;;;;;;4117986;28;20038;-58
2021/01/16 10:21:21;;;;;;;2.00;0.82;;;26.00;44.20;;;;;;4137837;28;20033;-57
2021/01/16 10:23:28;;;;;;;2.28;1.33;;;26.00;44.30;;;;;;4119529;28;20042;-57
2021/01/16 10:25:41;;;;;;;4.30;0.98;;;26.00;44.40;;;;;;4113099;28;20040;-58
2021/01/16 10:27:52;;;;;;;1.37;0.80;;;26.10;44.60;;;;;;4119661;28;20031;-58
2021/01/16 10:29:56;;;;;;;6.28;1.05;;;26.10;44.70;;;;;;4115202;28;20032;-54
2021/01/16 10:32:20;;;;;;;1.88;0.70;;;26.20;45.00;;;;;;4117321;28;20245;-58
2021/01/16 10:34:30;;;;;;;3.83;0.90;;;26.20;45.00;;;;;;4119539;28;20148;-58
2021/01/16 10:36:33;;;;;;;1.10;0.75;;;26.20;43.90;;;;;;4118389;28;20392;-59
2021/01/16 10:38:41;;;;;;;;;;;26.10;42.30;;;;;;4115422;28;20122;-58
2021/01/16 10:40:51;;;;;;;1.02;0.70;;;26.00;41.00;;;;;;4118170;28;20027;-59
2021/01/16 10:42:55;;;;;;;1.85;0.73;;;25.80;42.20;;;;;;4119761;28;20556;-59
2021/01/16 10:45:02;;;;;;;1.10;0.80;;;25.80;42.70;;;;;;4119659;28;20378;-62
2021/01/16 10:47:34;;;;;;;2.00;0.70;;;25.80;43.00;;;;;;4116976;28;20042;-62
2021/01/16 10:49:49;;;;;;;0.95;0.60;;;25.80;43.40;;;;;;4120011;28;20117;-66
2021/01/16 10:52:01;;;;;;;2.72;0.70;;;25.80;43.60;;;;;;4133660;28;20594;-68
2021/01/16 10:54:07;;;;;;;2.42;0.68;;;25.90;43.90;;;;;;4132708;28;20440;-63
2021/01/16 10:56:16;;;;;;;4.28;0.90;;;25.90;44.00;;;;;;4127704;28;20041;-62
2021/01/16 10:58:29;;;;;;;2.95;0.70;;;25.90;44.10;;;;;;4131180;28;20097;-68
2021/01/16 11:00:43;;;;;;;2.13;1.00;;;25.90;44.20;;;;;;4118525;28;20041;-62
2021/01/16 11:02:50;;;;;;;3.33;0.90;;;25.90;44.30;;;;;;4129623;28;20380;-62
2021/01/16 11:04:56;;;;;;;3.90;1.08;;;26.00;44.40;;;;;;4131169;28;20574;-59
2021/01/16 11:07:00;;;;;;;5.13;1.10;;;26.00;44.50;;;;;;4132631;28;20030;-59
2021/01/16 11:09:03;;;;;;;11.15;1.27;;;26.00;44.60;;;;;;4113783;28;20457;-56
2021/01/16 11:11:23;;;;;;;;;;;26.00;44.60;;;;;;4120597;28;20400;-58
2021/01/16 11:13:31;;;;;;;2.92;0.70;;;26.10;44.80;;;;;;4130072;28;19933;-59
2021/01/16 11:15:37;;;;;;;1.88;0.77;;;26.10;44.90;;;;;;4129382;28;20034;-58
2021/01/16 11:17:49;;;;;;;0.85;0.60;;;26.10;45.00;;;;;;4129624;28;20049;-55
2021/01/16 11:19:54;;;;;;;5.20;1.10;;;26.10;45.10;;;;;;4130190;28;20049;-58
2021/01/16 11:22:04;;;;;;;4.60;0.98;;;26.20;45.10;;;;;;4129911;28;20534;-59
2021/01/16 11:24:30;;;;;;;4.22;0.80;;;26.20;45.20;;;;;;4113243;28;20093;-58
2021/01/16 11:26:47;;;;;;;1.35;0.82;;;26.20;45.20;;;;;;4118917;28;20038;-58
2021/01/16 11:28:54;;;;;;;2.75;0.80;;;26.20;45.10;;;;;;4114842;28;20042;-59